Time;durP1;ratioP1;P1;durP2;ratioP2;P2;SDS_P1;SDS_P2;PMS_P1;PMS_P2;Temp;Humidity;BMP_temperature;BMP_pressure;BME280_temperature;BME280_humidity;BME280_pressure;Samples;Min_cycle;Max_cycle;Signal;HPM_P1;HPM_P2
2023/07/29 00:00:47;;;;;;;4.90;4.10;;;17.40;99.90;;;;;;5110943;28;20027;-52
2023/07/29 00:03:12;;;;;;;5.10;4.47;;;17.30;99.90;;;;;;5090314;28;20031;-54
2023/07/29 00:05:38;;;;;;;4.10;3.70;;;17.20;99.90;;;;;;5111001;28;20063;-54
2023/07/29 00:08:04;;;;;;;5.97;4.45;;;17.20;99.90;;;;;;5100204;28;20250;-53
2023/07/29 00:10:31;;;;;;;4.70;4.07;;;17.10;99.90;;;;;;5091790;28;20460;-54
2023/07/29 00:12:57;;;;;;;7.95;5.43;;;17.10;99.90;;;;;;5109411;28;20118;-55
2023/07/29 00:15:22;;;;;;;4.90;4.18;;;17.00;99.90;;;;;;5090870;28;20402;-53
2023/07/29 00:17:48;;;;;;;4.95;4.45;;;17.00;99.90;;;;;;5108832;28;20034;-52
2023/07/29 00:20:13;;;;;;;5.13;4.55;;;17.00;99.90;;;;;;5091671;28;20044;-54
2023/07/29 00:22:39;;;;;;;9.63;4.10;;;16.90;99.90;;;;;;5108937;28;20048;-55
2023/07/29 00:25:04;;;;;;;5.35;4.20;;;16.90;99.90;;;;;;5111309;28;20067;-55
2023/07/29 00:27:30;;;;;;;5.05;4.53;;;16.80;99.90;;;;;;5095539;28;20368;-55
2023/07/29 00:29:55;;;;;;;5.78;4.10;;;16.80;99.90;;;;;;5105320;28;20093;-54
2023/07/29 00:32:21;;;;;;;4.60;4.00;;;16.70;99.90;;;;;;5093684;28;20030;-54
2023/07/29 00:34:46;;;;;;;4.82;4.15;;;16.70;99.90;;;;;;5091992;28;20032;-55
2023/07/29 00:37:12;;;;;;;4.97;4.15;;;16.60;99.90;;;;;;5107563;28;20019;-54
2023/07/29 00:39:37;;;;;;;5.20;4.05;;;16.60;99.90;;;;;;5111332;28;20062;-54
2023/07/29 00:42:04;;;;;;;4.82;4.10;;;16.50;99.90;;;;;;5091044;28;20043;-53
2023/07/29 00:44:31;;;;;;;5.30;4.65;;;16.40;99.90;;;;;;5111201;28;20031;-53
2023/07/29 00:46:57;;;;;;;5.45;3.58;;;16.40;99.90;;;;;;5090118;28;20544;-55
2023/07/29 00:49:23;;;;;;;4.65;4.15;;;16.30;99.90;;;;;;5110911;28;20027;-49
2023/07/29 00:51:49;;;;;;;4.45;4.03;;;16.30;99.90;;;;;;5089134;28;20032;-53
2023/07/29 00:54:15;;;;;;;7.45;4.68;;;16.20;99.90;;;;;;5111130;28;20035;-55
2023/07/29 00:56:40;;;;;;;4.72;4.25;;;16.20;99.90;;;;;;5090939;28;20046;-54
2023/07/29 00:59:06;;;;;;;5.57;4.72;;;16.10;99.90;;;;;;5089023;28;20032;-56
2023/07/29 01:01:32;;;;;;;6.05;4.32;;;16.10;99.90;;;;;;5110027;28;20071;-53
2023/07/29 01:03:58;;;;;;;4.60;4.07;;;16.10;99.90;;;;;;5089078;28;20115;-54
2023/07/29 01:06:35;;;;;;;5.35;4.28;;;16.10;99.90;;;;;;5109724;28;20020;-51
2023/07/29 01:09:16;;;;;;;4.82;4.32;;;16.00;99.90;;;;;;5086686;28;20073;-52
2023/07/29 01:11:52;;;;;;;4.65;4.07;;;16.00;99.90;;;;;;5069883;28;20390;-51
2023/07/29 01:14:38;;;;;;;6.65;4.22;;;15.90;99.90;;;;;;5068710;28;20041;-53
2023/07/29 01:17:09;;;;;;;5.82;4.13;;;15.90;99.90;;;;;;5070636;28;20028;-54
2023/07/29 01:19:48;;;;;;;5.13;4.63;;;15.90;99.90;;;;;;5110445;28;20042;-54
2023/07/29 01:22:14;;;;;;;7.25;4.63;;;15.80;99.90;;;;;;5075048;28;20126;-55
2023/07/29 01:24:40;;;;;;;5.03;4.53;;;15.80;99.90;;;;;;5109064;28;20114;-52
2023/07/29 01:27:05;;;;;;;6.65;4.57;;;15.80;99.90;;;;;;5090428;28;20449;-52
2023/07/29 01:29:31;;;;;;;5.05;4.55;;;15.80;99.90;;;;;;5107518;28;20028;-53
2023/07/29 01:32:04;;;;;;;4.90;4.13;;;15.70;99.90;;;;;;5089149;28;20032;-53
2023/07/29 01:34:36;;;;;;;6.40;4.35;;;15.70;99.90;;;;;;5094162;28;20399;-54
2023/07/29 01:37:05;;;;;;;7.13;4.68;;;15.60;99.90;;;;;;5071020;28;20067;-55
2023/07/29 01:39:34;;;;;;;6.88;4.30;;;15.60;99.90;;;;;;5110161;28;20024;-53
2023/07/29 01:42:00;;;;;;;8.20;4.38;;;15.60;99.90;;;;;;5089372;28;20031;-50
2023/07/29 01:44:26;;;;;;;5.60;4.80;;;15.60;99.90;;;;;;5109936;27;20039;-54
2023/07/29 01:46:51;;;;;;;5.43;4.82;;;15.60;99.90;;;;;;5088622;28;20107;-52
2023/07/29 01:49:17;;;;;;;6.72;4.65;;;15.50;99.90;;;;;;5109966;28;20027;-50
2023/07/29 01:51:43;;;;;;;7.20;4.18;;;15.50;99.90;;;;;;5089792;28;20515;-52
2023/07/29 01:54:09;;;;;;;5.97;4.45;;;15.50;99.90;;;;;;5086342;28;20089;-57
2023/07/29 01:56:34;;;;;;;11.52;4.95;;;15.40;99.90;;;;;;5108966;28;20031;-55
2023/07/29 01:59:00;;;;;;;6.15;5.03;;;15.40;99.90;;;;;;5088067;28;20531;-51
2023/07/29 02:01:25;;;;;;;8.82;5.30;;;15.40;99.90;;;;;;5108524;28;20508;-53
2023/07/29 02:03:54;;;;;;;6.25;5.20;;;15.40;99.90;;;;;;5086547;28;20035;-55
2023/07/29 02:06:20;;;;;;;5.30;4.40;;;15.30;99.90;;;;;;5109329;28;20032;-52
2023/07/29 02:08:46;;;;;;;7.80;4.38;;;15.30;99.90;;;;;;5087535;28;20066;-53
2023/07/29 02:11:12;;;;;;;5.35;4.38;;;15.30;99.90;;;;;;5108761;28;20027;-54
2023/07/29 02:13:37;;;;;;;7.57;4.10;;;15.20;99.90;;;;;;5087852;28;20020;-55
2023/07/29 02:16:03;;;;;;;7.35;5.18;;;15.20;99.90;;;;;;5108399;28;20076;-53
2023/07/29 02:18:29;;;;;;;5.85;4.78;;;15.20;99.90;;;;;;5087748;28;20024;-51
2023/07/29 02:20:54;;;;;;;12.07;5.32;;;15.20;99.90;;;;;;5108380;28;20031;-50
2023/07/29 02:23:19;;;;;;;8.45;5.05;;;15.20;99.90;;;;;;5087602;28;20039;-53
2023/07/29 02:25:45;;;;;;;13.43;5.88;;;15.20;99.90;;;;;;5108119;28;20231;-51
2023/07/29 02:28:11;;;;;;;16.15;5.20;;;15.20;99.90;;;;;;5086273;28;20031;-48
2023/07/29 02:30:41;;;;;;;11.55;4.85;;;15.20;99.90;;;;;;5108289;28;20051;-51
2023/07/29 02:33:06;;;;;;;8.32;5.57;;;15.20;99.90;;;;;;5088320;28;20035;-50
2023/07/29 02:35:32;;;;;;;10.82;5.63;;;15.20;99.90;;;;;;5083521;28;20510;-54
2023/07/29 02:37:57;;;;;;;11.35;5.47;;;15.20;99.90;;;;;;5106016;28;20039;-54
2023/07/29 02:40:24;;;;;;;6.78;4.50;;;15.10;99.90;;;;;;5088984;28;20020;-49
2023/07/29 02:42:50;;;;;;;11.07;5.72;;;15.10;99.90;;;;;;5106560;28;20027;-53
2023/07/29 02:45:15;;;;;;;10.25;4.88;;;15.10;99.90;;;;;;5089438;28;20032;-54
2023/07/29 02:47:41;;;;;;;14.43;5.65;;;15.10;99.90;;;;;;5106260;28;20324;-56
2023/07/29 02:50:07;;;;;;;20.98;5.60;;;15.10;99.90;;;;;;5108774;28;20018;-55
2023/07/29 02:52:32;;;;;;;13.00;4.72;;;15.10;99.90;;;;;;5093198;28;20036;-56
2023/07/29 02:54:58;;;;;;;11.20;4.85;;;15.10;99.90;;;;;;5108863;28;20024;-56
2023/07/29 02:57:23;;;;;;;12.88;5.75;;;15.00;99.90;;;;;;5091772;28;20107;-55
2023/07/29 02:59:49;;;;;;;13.55;5.85;;;15.10;99.90;;;;;;5108892;28;20020;-56
2023/07/29 03:02:16;;;;;;;12.05;6.32;;;15.10;99.90;;;;;;5090765;28;20031;-52
2023/07/29 03:04:41;;;;;;;10.57;5.60;;;15.10;99.90;;;;;;5107347;28;20166;-52
2023/07/29 03:07:07;;;;;;;15.13;6.20;;;15.00;99.90;;;;;;5089529;28;20253;-55
2023/07/29 03:09:33;;;;;;;12.52;6.20;;;15.10;99.90;;;;;;5108860;28;20015;-53
2023/07/29 03:11:59;;;;;;;12.35;5.93;;;15.10;99.90;;;;;;5088345;28;20064;-56
2023/07/29 03:14:24;;;;;;;11.20;5.25;;;15.10;99.90;;;;;;5108622;28;20050;-55
2023/07/29 03:16:50;;;;;;;16.20;4.20;;;15.10;99.90;;;;;;5087322;28;20051;-55
2023/07/29 03:19:16;;;;;;;9.13;4.93;;;15.10;99.90;;;;;;5108843;28;20121;-55
2023/07/29 03:21:41;;;;;;;16.25;5.63;;;15.10;99.90;;;;;;5088811;28;20115;-54
2023/07/29 03:24:07;;;;;;;11.00;5.57;;;15.10;99.90;;;;;;5085295;28;20031;-54
2023/07/29 03:26:32;;;;;;;13.55;5.38;;;15.10;99.90;;;;;;5107951;28;20019;-56
2023/07/29 03:28:58;;;;;;;7.68;4.40;;;15.10;99.90;;;;;;5085607;28;20028;-51
2023/07/29 03:31:23;;;;;;;9.32;4.40;;;15.10;99.90;;;;;;5107413;28;20079;-56
2023/07/29 03:33:49;;;;;;;9.52;4.70;;;15.00;99.90;;;;;;5089102;28;20568;-55
2023/07/29 03:36:15;;;;;;;10.73;4.25;;;15.10;99.90;;;;;;5108467;28;20047;-53
2023/07/29 03:38:41;;;;;;;10.07;4.40;;;15.10;99.90;;;;;;5086635;28;20028;-55
2023/07/29 03:41:08;;;;;;;5.18;3.78;;;15.10;99.90;;;;;;5107509;28;20042;-54
2023/07/29 03:43:34;;;;;;;4.85;4.32;;;15.10;99.90;;;;;;5086663;28;20495;-59
2023/07/29 03:46:00;;;;;;;6.47;4.00;;;15.10;99.90;;;;;;5107824;28;20122;-59
2023/07/29 03:48:25;;;;;;;5.78;4.80;;;15.10;99.90;;;;;;5086568;28;20113;-59
2023/07/29 03:50:51;;;;;;;6.53;4.45;;;15.20;99.90;;;;;;5108940;28;20081;-59
2023/07/29 03:53:17;;;;;;;4.97;4.00;;;15.20;99.90;;;;;;5090552;28;20055;-60
2023/07/29 03:55:42;;;;;;;4.90;3.90;;;15.20;99.90;;;;;;5109747;28;20024;-59
2023/07/29 03:58:08;;;;;;;4.07;3.55;;;15.30;99.90;;;;;;5100081;28;20107;-59
2023/07/29 04:00:33;;;;;;;4.18;3.78;;;15.30;99.90;;;;;;5092150;28;20298;-58
2023/07/29 04:02:59;;;;;;;5.78;4.28;;;15.40;99.90;;;;;;5109220;28;20403;-59
2023/07/29 04:05:24;;;;;;;4.43;3.92;;;15.40;99.90;;;;;;5091897;28;20031;-59
2023/07/29 04:07:50;;;;;;;4.20;3.38;;;15.40;99.90;;;;;;5109145;28;20112;-59
2023/07/29 04:10:15;;;;;;;6.55;3.72;;;15.50;99.90;;;;;;5092091;28;20024;-59
2023/07/29 04:12:41;;;;;;;6.63;3.50;;;15.80;99.90;;;;;;5109254;28;20024;-59
2023/07/29 04:15:07;;;;;;;4.72;3.80;;;16.20;99.90;;;;;;5111668;28;20491;-59
2023/07/29 04:17:32;;;;;;;3.58;3.28;;;16.70;99.90;;;;;;5096043;28;20038;-59
2023/07/29 04:19:58;;;;;;;3.58;3.28;;;17.30;99.90;;;;;;5111519;28;20102;-60
2023/07/29 04:22:23;;;;;;;3.28;2.90;;;17.90;99.90;;;;;;5094392;28;20084;-59
2023/07/29 04:24:49;;;;;;;4.07;2.88;;;18.50;99.90;;;;;;5111512;28;20039;-59
2023/07/29 04:27:14;;;;;;;3.38;3.08;;;19.10;99.90;;;;;;5093381;28;20046;-59
2023/07/29 04:29:40;;;;;;;3.80;3.45;;;19.70;99.90;;;;;;5107423;28;20036;-59
2023/07/29 04:32:05;;;;;;;3.80;3.45;;;20.20;99.90;;;;;;5091299;28;20027;-60
2023/07/29 04:34:31;;;;;;;3.22;2.92;;;20.50;99.90;;;;;;5097211;28;20032;-59
2023/07/29 04:36:57;;;;;;;4.00;3.63;;;21.00;99.90;;;;;;5107520;28;20027;-59
2023/07/29 04:39:22;;;;;;;5.32;4.82;;;21.50;99.90;;;;;;5111147;28;20495;-59
2023/07/29 04:41:48;;;;;;;4.40;4.00;;;21.80;99.90;;;;;;5089821;28;20032;-59
2023/07/29 04:44:13;;;;;;;4.55;4.13;;;21.60;99.90;;;;;;5109229;28;20499;-59
2023/07/29 04:46:39;;;;;;;4.47;4.07;;;21.70;99.90;;;;;;5091256;28;20038;-59
2023/07/29 04:49:05;;;;;;;5.32;3.63;;;22.20;99.90;;;;;;5089206;28;20028;-59
2023/07/29 04:51:31;;;;;;;4.20;3.80;;;22.70;99.90;;;;;;5110187;28;20114;-59
2023/07/29 04:53:57;;;;;;;4.10;3.10;;;23.40;99.90;;;;;;5089328;28;20101;-59
2023/07/29 04:56:23;;;;;;;4.13;3.78;;;24.10;99.90;;;;;;5110056;28;20445;-59
2023/07/29 04:58:48;;;;;;;3.50;3.20;;;24.80;97.20;;;;;;5089477;28;20043;-59
2023/07/29 05:01:14;;;;;;;3.45;3.17;;;25.60;95.80;;;;;;5109661;28;20039;-59
2023/07/29 05:03:39;;;;;;;4.55;2.90;;;25.60;95.20;;;;;;5089140;28;20046;-59
2023/07/29 05:06:05;;;;;;;3.33;3.05;;;26.00;94.50;;;;;;5109782;28;20046;-59
2023/07/29 05:08:30;;;;;;;4.07;3.67;;;26.10;94.10;;;;;;5089224;28;20035;-59
2023/07/29 05:10:56;;;;;;;2.60;2.40;;;26.50;92.10;;;;;;5109856;28;20031;-59
2023/07/29 05:13:22;;;;;;;2.95;2.72;;;27.20;90.70;;;;;;5088812;28;20052;-59
2023/07/29 05:15:48;;;;;;;6.03;3.03;;;27.90;84.50;;;;;;5109554;28;20062;-59
2023/07/29 05:18:15;;;;;;;3.10;2.90;;;28.10;81.90;;;;;;5088741;28;20043;-59
2023/07/29 05:20:41;;;;;;;4.50;3.22;;;28.60;76.10;;;;;;5109758;28;20076;-59
2023/07/29 05:23:06;;;;;;;2.78;2.58;;;28.80;74.80;;;;;;5099359;28;20024;-59
2023/07/29 05:25:34;;;;;;;3.08;2.78;;;29.30;73.60;;;;;;5090676;28;20560;-60
2023/07/29 05:28:00;;;;;;;2.92;2.63;;;29.90;71.40;;;;;;5108049;28;20046;-59
2023/07/29 05:30:26;;;;;;;3.92;3.22;;;30.60;68.90;;;;;;5099930;28;20047;-59
2023/07/29 05:32:52;;;;;;;3.00;2.80;;;30.90;65.10;;;;;;5097239;28;20036;-59
2023/07/29 05:35:17;;;;;;;3.58;3.17;;;30.20;62.10;;;;;;5084392;28;20024;-59
2023/07/29 05:37:43;;;;;;;3.85;3.25;;;29.40;64.50;;;;;;5107421;28;20486;-59
2023/07/29 05:40:09;;;;;;;6.05;2.97;;;29.70;62.50;;;;;;5108716;28;20028;-59
2023/07/29 05:42:35;;;;;;;3.45;3.15;;;30.10;60.30;;;;;;5094849;28;20040;-59
2023/07/29 05:45:01;;;;;;;3.40;3.10;;;30.50;57.40;;;;;;5110065;28;20551;-59
2023/07/29 05:47:26;;;;;;;2.95;2.67;;;31.10;57.10;;;;;;5093152;28;20034;-59
2023/07/29 05:49:52;;;;;;;4.72;3.17;;;31.90;56.10;;;;;;5109897;28;20035;-59
2023/07/29 05:52:18;;;;;;;4.55;2.67;;;32.40;54.10;;;;;;5092219;28;20106;-59
2023/07/29 05:54:44;;;;;;;2.72;2.35;;;32.50;52.20;;;;;;5109549;28;20467;-59
2023/07/29 05:57:11;;;;;;;2.80;2.60;;;32.90;51.50;;;;;;5090886;28;20028;-62
2023/07/29 05:59:36;;;;;;;2.97;2.40;;;33.30;48.50;;;;;;5110011;28;20027;-64
2023/07/29 06:02:02;;;;;;;2.72;2.53;;;33.40;47.50;;;;;;5089337;28;20054;-63
2023/07/29 06:04:27;;;;;;;2.60;2.40;;;33.90;45.90;;;;;;5109801;28;20024;-64
2023/07/29 06:06:55;;;;;;;3.97;2.13;;;34.00;44.10;;;;;;5086809;28;20507;-63
2023/07/29 06:09:21;;;;;;;2.83;2.63;;;33.60;44.20;;;;;;5089576;28;20024;-64
2023/07/29 06:11:46;;;;;;;2.80;2.58;;;32.60;44.40;;;;;;5108802;28;20019;-64
2023/07/29 06:14:12;;;;;;;3.08;2.78;;;31.60;45.50;;;;;;5087066;28;20024;-64
2023/07/29 06:16:37;;;;;;;2.60;2.40;;;30.70;46.30;;;;;;5109024;28;20028;-63
2023/07/29 06:19:03;;;;;;;2.83;2.63;;;30.50;47.40;;;;;;5087824;28;20036;-64
2023/07/29 06:21:28;;;;;;;3.25;2.60;;;30.60;47.20;;;;;;5108730;28;20031;-64
2023/07/29 06:23:53;;;;;;;2.70;2.50;;;30.70;47.40;;;;;;5088007;28;20058;-64
2023/07/29 06:26:19;;;;;;;3.33;2.30;;;30.90;46.10;;;;;;5108770;28;20032;-64
2023/07/29 06:28:44;;;;;;;2.63;2.42;;;32.10;44.00;;;;;;5087645;28;20556;-63
2023/07/29 06:31:10;;;;;;;2.90;2.70;;;33.00;41.30;;;;;;5108634;28;20040;-64
2023/07/29 06:33:36;;;;;;;2.83;2.60;;;33.90;38.70;;;;;;5085138;28;20073;-63
2023/07/29 06:36:02;;;;;;;2.60;2.40;;;34.00;37.10;;;;;;5109398;28;20691;-64
2023/07/29 06:38:28;;;;;;;2.22;2.05;;;33.90;37.30;;;;;;5087723;28;20032;-64
2023/07/29 06:40:53;;;;;;;2.03;1.92;;;33.80;37.70;;;;;;5108774;28;20043;-64
2023/07/29 06:43:19;;;;;;;3.80;1.95;;;34.50;35.80;;;;;;5087637;28;20054;-64
2023/07/29 06:45:44;;;;;;;2.38;2.17;;;35.20;33.30;;;;;;5106892;28;20107;-63
2023/07/29 06:48:10;;;;;;;2.03;1.92;;;34.90;32.70;;;;;;5087745;28;20480;-63
2023/07/29 06:50:35;;;;;;;2.85;1.77;;;34.60;32.60;;;;;;5108381;28;20380;-63
2023/07/29 06:53:01;;;;;;;2.00;1.90;;;34.90;31.50;;;;;;5087541;28;20047;-63
2023/07/29 06:55:26;;;;;;;2.25;2.05;;;34.20;32.00;;;;;;5108189;28;20456;-63
2023/07/29 06:57:52;;;;;;;2.53;2.33;;;33.40;32.90;;;;;;5087340;28;20412;-63
2023/07/29 07:00:17;;;;;;;2.22;2.10;;;32.50;34.20;;;;;;5108472;28;20300;-63
2023/07/29 07:02:43;;;;;;;2.42;1.98;;;31.80;35.20;;;;;;5087123;28;20039;-63
2023/07/29 07:05:09;;;;;;;2.47;2.28;;;31.50;36.10;;;;;;5088730;28;20020;-63
2023/07/29 07:07:34;;;;;;;2.42;2.22;;;31.00;36.50;;;;;;5100122;28;20024;-62
2023/07/29 07:10:00;;;;;;;3.00;2.58;;;31.30;36.70;;;;;;5088763;28;20012;-63
2023/07/29 07:12:25;;;;;;;2.58;2.28;;;32.40;35.30;;;;;;5100977;28;20028;-64
2023/07/29 07:14:51;;;;;;;1.98;1.88;;;33.40;31.60;;;;;;5088710;28;20020;-64
2023/07/29 07:17:17;;;;;;;2.60;2.40;;;33.50;32.90;;;;;;5102471;28;20383;-63
2023/07/29 07:19:42;;;;;;;2.75;2.55;;;33.60;30.10;;;;;;5088500;28;20032;-63
2023/07/29 07:22:08;;;;;;;1.95;1.80;;;33.90;30.30;;;;;;5103355;28;20130;-63
2023/07/29 07:24:33;;;;;;;2.60;2.25;;;33.90;31.30;;;;;;5089576;28;20023;-62
2023/07/29 07:26:59;;;;;;;2.17;1.98;;;33.50;31.00;;;;;;5108909;28;20488;-63
2023/07/29 07:29:24;;;;;;;1.90;1.80;;;32.90;32.30;;;;;;5093433;28;20055;-63
2023/07/29 07:31:54;;;;;;;3.25;1.90;;;32.50;33.10;;;;;;5110814;28;20047;-62
2023/07/29 07:34:23;;;;;;;2.40;2.10;;;32.80;32.10;;;;;;5095897;28;20031;-63
2023/07/29 07:36:49;;;;;;;2.13;2.03;;;33.20;31.20;;;;;;5092709;28;20114;-64
2023/07/29 07:39:15;;;;;;;2.40;2.20;;;33.40;30.90;;;;;;5072116;28;20020;-63
2023/07/29 07:41:41;;;;;;;2.58;2.20;;;33.30;31.00;;;;;;5111190;28;20096;-63
2023/07/29 07:44:07;;;;;;;2.25;1.95;;;33.20;29.90;;;;;;5090779;28;20024;-62
2023/07/29 07:46:32;;;;;;;2.45;1.73;;;32.70;31.80;;;;;;5111747;28;20112;-61
2023/07/29 07:48:58;;;;;;;2.22;2.03;;;32.70;32.50;;;;;;5090803;28;20055;-63
2023/07/29 07:51:23;;;;;;;2.25;2.10;;;32.50;32.50;;;;;;5111541;28;20027;-62
2023/07/29 07:53:49;;;;;;;2.20;2.00;;;32.30;32.70;;;;;;5090418;28;20085;-62
2023/07/29 07:56:15;;;;;;;2.63;1.88;;;32.30;33.20;;;;;;5111655;28;20031;-62
2023/07/29 07:58:40;;;;;;;2.03;1.92;;;32.40;32.80;;;;;;5090556;28;20085;-62
2023/07/29 08:01:07;;;;;;;1.92;1.83;;;32.50;32.30;;;;;;5111327;28;20122;-62
2023/07/29 08:03:33;;;;;;;2.60;2.40;;;32.00;33.20;;;;;;5090426;28;20031;-61
2023/07/29 08:05:59;;;;;;;2.20;2.00;;;31.80;33.60;;;;;;5111462;28;20035;-62
2023/07/29 08:08:28;;;;;;;3.88;2.28;;;31.40;34.20;;;;;;5090284;28;20055;-62
2023/07/29 08:10:54;;;;;;;1.80;1.70;;;31.00;34.80;;;;;;5111731;28;20043;-62
2023/07/29 08:13:20;;;;;;;2.65;2.42;;;30.70;35.60;;;;;;5090327;28;20058;-62
2023/07/29 08:15:50;;;;;;;3.00;2.25;;;30.30;36.50;;;;;;5109917;28;20504;-62
2023/07/29 08:18:15;;;;;;;1.83;1.70;;;30.00;37.00;;;;;;5089835;28;20074;-62
2023/07/29 08:20:41;;;;;;;1.58;1.48;;;29.60;37.70;;;;;;5111017;28;20444;-61
2023/07/29 08:23:07;;;;;;;3.05;2.03;;;29.30;38.80;;;;;;5089874;28;20051;-62
2023/07/29 08:25:32;;;;;;;2.50;2.30;;;29.00;39.70;;;;;;5111073;28;20364;-61
2023/07/29 08:27:58;;;;;;;5.57;2.50;;;28.70;40.70;;;;;;5088718;28;20116;-62
2023/07/29 08:30:23;;;;;;;8.38;2.47;;;28.30;41.90;;;;;;5100621;28;20044;-62
2023/07/29 08:32:50;;;;;;;4.07;2.60;;;28.00;42.90;;;;;;5100573;28;20110;-61
2023/07/29 08:35:15;;;;;;;3.45;2.60;;;27.70;44.40;;;;;;5107694;28;20030;-62
2023/07/29 08:37:41;;;;;;;4.65;2.28;;;27.40;45.70;;;;;;5089076;28;20036;-62
2023/07/29 08:40:07;;;;;;;2.58;2.38;;;27.10;47.00;;;;;;5091004;28;20107;-62
2023/07/29 08:42:34;;;;;;;2.58;2.38;;;26.80;48.90;;;;;;5102683;28;20032;-61
2023/07/29 08:45:07;;;;;;;3.85;1.95;;;26.70;50.20;;;;;;5091108;28;20021;-62
2023/07/29 08:47:33;;;;;;;2.50;2.30;;;26.60;51.60;;;;;;5075072;28;20369;-59
2023/07/29 08:50:01;;;;;;;3.67;2.10;;;26.60;51.60;;;;;;5090882;28;20039;-60
2023/07/29 08:52:27;;;;;;;1.67;1.58;;;26.70;52.40;;;;;;5103533;28;20043;-59
2023/07/29 08:54:52;;;;;;;1.80;1.70;;;26.70;52.90;;;;;;5090892;28;20028;-61
2023/07/29 08:57:20;;;;;;;2.47;1.83;;;26.80;53.50;;;;;;5104517;28;20039;-62
2023/07/29 08:59:45;;;;;;;3.10;1.65;;;27.20;54.20;;;;;;5090615;28;20020;-62
2023/07/29 09:02:11;;;;;;;1.83;1.73;;;27.80;54.20;;;;;;5105452;28;20035;-63
2023/07/29 09:04:37;;;;;;;3.17;1.77;;;28.20;53.80;;;;;;5090771;28;20020;-62
2023/07/29 09:07:04;;;;;;;1.90;1.80;;;28.50;53.10;;;;;;5106292;28;20032;-62
2023/07/29 09:09:30;;;;;;;1.70;1.60;;;28.50;52.20;;;;;;5089544;28;20054;-62
2023/07/29 09:11:56;;;;;;;1.73;1.45;;;28.60;51.70;;;;;;5107234;28;20031;-61
2023/07/29 09:14:23;;;;;;;3.20;2.00;;;28.60;51.40;;;;;;5089209;28;20441;-62
2023/07/29 09:16:48;;;;;;;2.13;1.90;;;28.60;51.00;;;;;;5110202;28;20055;-62
2023/07/29 09:19:14;;;;;;;2.97;1.80;;;28.60;50.50;;;;;;5089660;28;20067;-61
2023/07/29 09:21:40;;;;;;;2.08;1.88;;;28.60;50.20;;;;;;5109945;28;20035;-60
2023/07/29 09:24:07;;;;;;;1.73;1.45;;;28.80;49.80;;;;;;5088687;28;20515;-60
2023/07/29 09:26:33;;;;;;;1.60;1.50;;;29.00;50.30;;;;;;5109958;28;20028;-59
2023/07/29 09:28:59;;;;;;;1.52;1.42;;;29.20;50.00;;;;;;5088898;28;20034;-60
2023/07/29 09:31:26;;;;;;;1.42;1.33;;;29.50;49.70;;;;;;5109514;28;20032;-60
2023/07/29 09:34:03;;;;;;;1.60;1.50;;;29.70;49.10;;;;;;5090819;28;20020;-60
2023/07/29 09:36:31;;;;;;;3.70;1.35;;;30.00;46.40;;;;;;5110503;28;20023;-61
2023/07/29 09:38:58;;;;;;;2.13;1.50;;;30.00;47.30;;;;;;5088240;28;20115;-60
2023/07/29 09:41:28;;;;;;;1.95;1.73;;;30.20;47.20;;;;;;5108124;28;20077;-60
2023/07/29 09:43:58;;;;;;;2.38;1.60;;;30.30;46.60;;;;;;5085327;28;20073;-61
2023/07/29 09:46:25;;;;;;;1.65;1.55;;;30.30;45.80;;;;;;5109488;28;20027;-60
2023/07/29 09:48:54;;;;;;;1.92;1.70;;;30.10;45.20;;;;;;5087242;28;20020;-60
2023/07/29 09:51:19;;;;;;;1.83;1.73;;;30.20;45.20;;;;;;5109863;28;20028;-60
2023/07/29 09:53:47;;;;;;;2.20;1.70;;;30.30;44.80;;;;;;5088048;28;20024;-60
2023/07/29 09:56:13;;;;;;;2.88;1.80;;;30.30;44.40;;;;;;5108310;28;20020;-61
2023/07/29 09:58:39;;;;;;;1.55;1.45;;;30.30;44.10;;;;;;5088311;28;20031;-59
2023/07/29 10:01:06;;;;;;;1.60;1.50;;;30.40;44.10;;;;;;5109130;28;20522;-63
2023/07/29 10:03:33;;;;;;;1.92;1.73;;;30.60;43.90;;;;;;5087983;28;20088;-62
2023/07/29 10:06:06;;;;;;;1.77;1.60;;;30.70;42.80;;;;;;5108058;28;20023;-62
2023/07/29 10:08:35;;;;;;;1.60;1.50;;;30.40;42.70;;;;;;5081863;28;20035;-63
2023/07/29 10:11:02;;;;;;;2.45;1.45;;;30.40;42.90;;;;;;5109517;28;20027;-63
2023/07/29 10:13:28;;;;;;;3.10;1.65;;;30.40;42.90;;;;;;5087945;28;20035;-63
2023/07/29 10:15:55;;;;;;;1.63;1.30;;;30.30;43.20;;;;;;5108944;28;20093;-62
2023/07/29 10:18:22;;;;;;;1.50;1.40;;;30.30;43.10;;;;;;5087768;27;20107;-62
2023/07/29 10:20:51;;;;;;;1.50;1.40;;;30.20;43.30;;;;;;5109069;28;20027;-63
2023/07/29 10:23:18;;;;;;;1.60;1.50;;;30.20;42.90;;;;;;5087520;27;20043;-60
2023/07/29 10:25:49;;;;;;;3.60;1.55;;;29.80;43.70;;;;;;5108711;28;20035;-60
2023/07/29 10:28:18;;;;;;;1.48;1.38;;;29.50;44.00;;;;;;5079101;28;20036;-60
2023/07/29 10:30:44;;;;;;;1.60;1.50;;;29.50;44.30;;;;;;5108843;28;20039;-59
2023/07/29 10:33:10;;;;;;;1.92;1.80;;;29.50;44.20;;;;;;5087596;28;20145;-61
2023/07/29 10:35:37;;;;;;;3.42;1.42;;;29.60;44.00;;;;;;5102394;28;20055;-59
2023/07/29 10:38:04;;;;;;;1.65;1.42;;;29.40;44.20;;;;;;5087419;28;20020;-60
2023/07/29 10:40:52;;;;;;;1.50;1.40;;;29.40;44.20;;;;;;5108812;28;20077;-61
2023/07/29 10:43:32;;;;;;;1.58;1.25;;;29.40;43.70;;;;;;5087057;28;20040;-60
2023/07/29 10:46:16;;;;;;;1.98;1.48;;;29.40;44.00;;;;;;5068862;28;20107;-60
2023/07/29 10:48:43;;;;;;;4.03;1.70;;;29.40;43.90;;;;;;5082491;28;20035;-59
2023/07/29 10:51:29;;;;;;;1.17;1.10;;;29.50;43.70;;;;;;5108670;28;20153;-61
2023/07/29 10:53:55;;;;;;;1.40;1.30;;;29.50;43.00;;;;;;5087388;28;20022;-60
2023/07/29 10:56:34;;;;;;;1.20;1.10;;;29.30;43.90;;;;;;5107144;28;20157;-61
2023/07/29 10:59:12;;;;;;;1.83;1.10;;;29.20;45.50;;;;;;5085163;28;20043;-60
2023/07/29 11:01:39;;;;;;;3.17;1.38;;;29.10;48.10;;;;;;5112608;28;20031;-59
2023/07/29 11:04:20;;;;;;;2.05;1.42;;;29.00;47.70;;;;;;5091261;28;20043;-60
2023/07/29 11:07:04;;;;;;;1.55;1.40;;;29.00;50.50;;;;;;5112326;28;20097;-60
2023/07/29 11:09:48;;;;;;;1.92;1.20;;;28.80;51.00;;;;;;5072827;28;20273;-60
2023/07/29 11:12:36;;;;;;;1.20;1.20;;;28.50;51.80;;;;;;5106583;28;20027;-60
2023/07/29 11:15:10;;;;;;;2.58;1.42;;;28.20;52.60;;;;;;5092823;28;20476;-60
2023/07/29 11:17:40;;;;;;;1.33;1.23;;;28.00;52.80;;;;;;5103998;28;20043;-59
2023/07/29 11:20:09;;;;;;;3.38;1.60;;;28.00;52.60;;;;;;5092424;28;20106;-59
2023/07/29 11:22:35;;;;;;;1.30;1.20;;;28.10;53.00;;;;;;5103053;28;20500;-59
2023/07/29 11:25:01;;;;;;;1.40;1.23;;;28.10;53.10;;;;;;5092622;28;20116;-61
2023/07/29 11:27:26;;;;;;;1.42;1.33;;;28.20;53.00;;;;;;5105043;28;20514;-60
2023/07/29 11:30:01;;;;;;;1.38;1.20;;;28.40;52.60;;;;;;5097646;28;20046;-62
2023/07/29 11:32:27;;;;;;;1.38;1.10;;;28.50;52.30;;;;;;5105905;28;20035;-62
2023/07/29 11:34:52;;;;;;;1.77;1.23;;;28.60;51.50;;;;;;5101793;28;20313;-60
2023/07/29 11:37:20;;;;;;;1.00;0.95;;;28.50;50.70;;;;;;5091105;28;20039;-61
2023/07/29 11:39:45;;;;;;;1.10;1.00;;;28.50;50.50;;;;;;5092385;28;20023;-60
2023/07/29 11:42:12;;;;;;;1.20;1.10;;;28.50;49.30;;;;;;5107257;28;20536;-60
2023/07/29 11:44:38;;;;;;;1.20;1.10;;;28.40;48.90;;;;;;5092403;28;20060;-54
2023/07/29 11:47:07;;;;;;;2.00;1.27;;;28.30;48.20;;;;;;5109953;28;20032;-54
2023/07/29 11:49:33;;;;;;;0.93;0.93;;;28.20;47.30;;;;;;5111359;28;20019;-56
2023/07/29 11:51:59;;;;;;;1.23;1.00;;;28.00;48.40;;;;;;5090746;28;20062;-51
2023/07/29 11:54:25;;;;;;;2.25;1.05;;;27.70;48.20;;;;;;5092033;28;20052;-53
2023/07/29 11:56:51;;;;;;;1.30;1.10;;;27.30;49.30;;;;;;5109523;28;20446;-53
2023/07/29 11:59:16;;;;;;;1.40;1.20;;;27.00;50.50;;;;;;5092292;28;20020;-60
2023/07/29 12:01:42;;;;;;;2.25;0.93;;;26.80;51.80;;;;;;5111511;28;20055;-62
2023/07/29 12:04:07;;;;;;;6.75;1.60;;;26.40;55.20;;;;;;5090507;28;20038;-54
2023/07/29 12:06:33;;;;;;;3.97;1.00;;;25.50;62.00;;;;;;5111597;28;20031;-51
2023/07/29 12:09:00;;;;;;;1.25;0.90;;;24.90;68.10;;;;;;5090626;28;20036;-53
2023/07/29 12:11:25;;;;;;;3.45;0.98;;;24.40;71.80;;;;;;5110255;28;20032;-53
2023/07/29 12:13:53;;;;;;;0.88;0.80;;;24.10;71.80;;;;;;5090716;28;20028;-54
2023/07/29 12:16:19;;;;;;;1.83;1.08;;;23.90;74.10;;;;;;5111809;28;20051;-54
2023/07/29 12:18:44;;;;;;;0.93;0.80;;;23.70;75.30;;;;;;5088864;28;20066;-50
2023/07/29 12:21:10;;;;;;;1.70;0.90;;;23.60;76.50;;;;;;5111320;28;20038;-52
2023/07/29 12:23:36;;;;;;;2.40;0.82;;;23.50;77.20;;;;;;5090604;28;20409;-51
2023/07/29 12:26:01;;;;;;;1.27;0.80;;;23.40;78.50;;;;;;5111299;28;20063;-53
2023/07/29 12:28:27;;;;;;;1.95;1.00;;;23.30;80.20;;;;;;5090114;28;20024;-52
2023/07/29 12:30:56;;;;;;;1.30;0.90;;;23.10;83.00;;;;;;5110889;28;20046;-54
2023/07/29 12:33:33;;;;;;;3.60;1.23;;;23.00;85.20;;;;;;5090905;28;20649;-53
2023/07/29 12:35:59;;;;;;;2.65;1.20;;;22.80;89.00;;;;;;5111974;28;20387;-51
2023/07/29 12:38:29;;;;;;;1.98;1.30;;;22.60;88.20;;;;;;5089858;28;20032;-54
2023/07/29 12:40:55;;;;;;;1.63;1.30;;;22.50;89.60;;;;;;5111111;28;20038;-51
2023/07/29 12:43:20;;;;;;;1.83;1.20;;;22.40;91.40;;;;;;5089818;28;20036;-53